createdAt,value
2022-10-05T00:00:55.339Z,100958.50
2022-10-05T00:03:24.878Z,100964.50
2022-10-05T00:05:52.051Z,100959.94
2022-10-05T00:08:23.845Z,100965.94
2022-10-05T00:10:52.542Z,100963.94
2022-10-05T00:13:30.669Z,100960.09
2022-10-05T00:16:20.159Z,100960.44
2022-10-05T00:18:52.598Z,100958.84
2022-10-05T00:21:29.693Z,100962.53
2022-10-05T00:23:58.546Z,100961.69
2022-10-05T00:26:32.962Z,100954.91
2022-10-05T00:29:08.968Z,100956.63
2022-10-05T00:31:36.451Z,100962.53
2022-10-05T00:34:03.645Z,100962.25
2022-10-05T00:36:31.947Z,100963.88
2022-10-05T00:39:01.998Z,100969.88
2022-10-05T00:41:52.033Z,100969.94
2022-10-05T00:44:54.710Z,100968.28
2022-10-05T00:47:49.704Z,100964.59
2022-10-05T00:50:54.193Z,100967.63
2022-10-05T00:53:48.573Z,100957.44
2022-10-05T00:56:30.469Z,100963.97
2022-10-05T00:59:24.545Z,100966.31
2022-10-05T01:03:00.686Z,100968.97
2022-10-05T01:06:43.449Z,100964.16
2022-10-05T01:10:15.967Z,100960.31
2022-10-05T01:13:38.723Z,100951.56
2022-10-05T01:16:49.303Z,100948.91
2022-10-05T01:20:14.001Z,100953.34
2022-10-05T01:23:33.828Z,100957.25
2022-10-05T01:27:09.825Z,100954.34
2022-10-05T01:30:11.045Z,100955.53
2022-10-05T01:33:02.904Z,100954.59
2022-10-05T01:35:53.964Z,100951.16
2022-10-05T01:38:42.914Z,100949.75
2022-10-05T01:41:48.044Z,100956.84
2022-10-05T01:44:29.106Z,100946.16
2022-10-05T01:47:09.968Z,100946.91
2022-10-05T01:50:04.494Z,100950.38
2022-10-05T01:53:47.262Z,100941.69
2022-10-05T01:56:59.334Z,100944.19
2022-10-05T02:00:05.537Z,100935.34
2022-10-05T02:03:06.281Z,100937.00
2022-10-05T02:06:01.411Z,100924.50
2022-10-05T02:09:07.397Z,100930.59
2022-10-05T02:11:37.121Z,100930.81
2022-10-05T02:14:13.189Z,100932.78
2022-10-05T02:16:46.062Z,100931.72
2022-10-05T02:19:47.111Z,100939.63
2022-10-05T02:22:45.142Z,100929.00
2022-10-05T02:25:24.280Z,100935.06
2022-10-05T02:28:05.278Z,100933.22
2022-10-05T02:30:41.573Z,100933.16
2022-10-05T02:33:32.509Z,100934.91
2022-10-05T02:36:20.369Z,100941.06
2022-10-05T02:39:47.718Z,100936.56
2022-10-05T02:43:19.214Z,100931.94
2022-10-05T02:47:05.624Z,100941.91
2022-10-05T02:49:49.260Z,100935.38
2022-10-05T02:52:53.621Z,100936.38
2022-10-05T02:56:03.038Z,100939.00
2022-10-05T02:59:15.156Z,100937.25
2022-10-05T03:02:02.217Z,100931.84
2022-10-05T03:05:04.553Z,100944.28
2022-10-05T03:07:50.925Z,100946.06
2022-10-05T03:10:47.869Z,100945.28
2022-10-05T03:13:48.389Z,100949.75
2022-10-05T03:17:04.049Z,100947.25
2022-10-05T03:20:22.717Z,100935.81
2022-10-05T03:22:54.594Z,100940.16
2022-10-05T03:26:02.914Z,100938.31
2022-10-05T03:29:03.936Z,100938.44
2022-10-05T03:31:50.369Z,100942.19
2022-10-05T03:34:32.909Z,100946.72
2022-10-05T03:37:14.993Z,100946.72
2022-10-05T03:39:56.218Z,100944.22
2022-10-05T03:43:06.670Z,100943.38
2022-10-05T03:45:48.955Z,100942.56
2022-10-05T03:48:33.655Z,100941.84
2022-10-05T03:51:15.613Z,100946.41
2022-10-05T03:53:58.331Z,100943.56
2022-10-05T03:56:55.245Z,100956.97
2022-10-05T03:59:34.791Z,100957.09
2022-10-05T04:02:37.266Z,100951.16
2022-10-05T04:05:11.048Z,100954.69
2022-10-05T04:08:04.469Z,100948.19
2022-10-05T04:10:44.534Z,100951.69
2022-10-05T04:13:47.776Z,100942.84
2022-10-05T04:16:28.176Z,100953.38
2022-10-05T04:19:21.569Z,100954.19
2022-10-05T04:22:03.393Z,100960.31
2022-10-05T04:24:56.691Z,100967.38
2022-10-05T04:27:59.489Z,100960.38
2022-10-05T04:30:27.325Z,100955.03
2022-10-05T04:32:59.360Z,100954.19
2022-10-05T04:36:22.447Z,100961.22
2022-10-05T04:39:03.632Z,100957.66
2022-10-05T04:42:09.051Z,100964.75
2022-10-05T04:45:02.441Z,100954.19
2022-10-05T04:47:58.173Z,100956.75
2022-10-05T04:50:59.841Z,100963.56
2022-10-05T04:53:57.305Z,100965.31
2022-10-05T04:56:36.806Z,100973.97
2022-10-05T04:59:41.105Z,100974.06
2022-10-05T05:03:10.070Z,100970.56
2022-10-05T05:06:24.959Z,100978.56
2022-10-05T05:09:37.001Z,100975.16
2022-10-05T05:12:50.921Z,100972.50
2022-10-05T05:16:02.095Z,100974.41
2022-10-05T05:19:17.345Z,100968.22
2022-10-05T05:21:59.691Z,100974.34
2022-10-05T05:24:49.220Z,100980.56
2022-10-05T05:27:43.589Z,100975.28
2022-10-05T05:30:25.019Z,100975.44
2022-10-05T05:33:15.739Z,100974.63
2022-10-05T05:36:11.413Z,100979.19
2022-10-05T05:39:27.824Z,100976.56
2022-10-05T05:42:49.621Z,100966.84
2022-10-05T05:45:44.102Z,100977.59
2022-10-05T05:48:46.736Z,100980.25
2022-10-05T05:51:32.705Z,100984.75
2022-10-05T05:54:39.410Z,100995.44
2022-10-05T05:57:28.917Z,100986.81
2022-10-05T06:00:08.393Z,100989.59
2022-10-05T06:03:09.641Z,100993.22
2022-10-05T06:06:16.808Z,100991.63
2022-10-05T06:08:53.977Z,100998.63
2022-10-05T06:11:58.273Z,100992.50
2022-10-05T06:14:55.253Z,100997.03
2022-10-05T06:17:45.316Z,100993.56
2022-10-05T06:20:40.746Z,100998.19
2022-10-05T06:23:28.333Z,101010.13
2022-10-05T06:26:39.756Z,101011.19
2022-10-05T06:29:22.868Z,101011.41
2022-10-05T06:32:21.359Z,101016.28
2022-10-05T06:35:29.286Z,101014.84
2022-10-05T06:38:17.377Z,101019.56
2022-10-05T06:41:15.929Z,101020.72
2022-10-05T06:44:01.036Z,101017.44
2022-10-05T06:47:38.189Z,101023.06
2022-10-05T06:50:52.473Z,101020.59
2022-10-05T06:54:14.490Z,101027.94
2022-10-05T06:57:09.148Z,101023.63
2022-10-05T07:00:05.405Z,101031.63
2022-10-05T07:02:49.402Z,101028.19
2022-10-05T07:05:47.658Z,101034.47
2022-10-05T07:08:57.301Z,101030.97
2022-10-05T07:12:05.462Z,101034.66
2022-10-05T07:15:04.344Z,101029.63
2022-10-05T07:18:27.657Z,101032.19
2022-10-05T07:21:26.542Z,101032.31
2022-10-05T07:24:23.169Z,101032.56
2022-10-05T07:27:05.501Z,101042.44
2022-10-05T07:29:48.156Z,101043.53
2022-10-05T07:33:13.664Z,101048.28
2022-10-05T07:36:36.374Z,101050.13
2022-10-05T07:39:55.368Z,101048.41
2022-10-05T07:43:07.484Z,101053.13
2022-10-05T07:46:09.955Z,101055.91
2022-10-05T07:49:03.308Z,101055.34
2022-10-05T07:51:40.955Z,101053.91
2022-10-05T07:55:02.899Z,101057.56
2022-10-05T07:58:06.305Z,101053.50
2022-10-05T08:01:03.213Z,101050.69
2022-10-05T08:04:19.707Z,101054.03
2022-10-05T08:07:01.970Z,101061.72
2022-10-05T08:09:50.714Z,101063.06
2022-10-05T08:12:37.318Z,101050.19
2022-10-05T08:15:25.922Z,101058.13
2022-10-05T08:18:12.119Z,101061.06
2022-10-05T08:20:52.797Z,101068.34
2022-10-05T08:23:39.264Z,101061.50
2022-10-05T08:26:35.778Z,101066.31
2022-10-05T08:29:35.292Z,101072.78
2022-10-05T08:32:25.820Z,101072.59
2022-10-05T08:35:24.123Z,101074.16
2022-10-05T08:37:52.473Z,101076.09
2022-10-05T08:40:22.140Z,101071.97
2022-10-05T08:43:35.772Z,101078.44
2022-10-05T08:46:26.617Z,101073.56
2022-10-05T08:49:52.844Z,101075.34
2022-10-05T08:52:37.715Z,101078.25
2022-10-05T08:55:10.713Z,101079.47
2022-10-05T08:58:20.896Z,101078.94
2022-10-05T09:01:50.365Z,101085.69
2022-10-05T09:04:30.075Z,101081.13
2022-10-05T09:07:07.902Z,101083.63
2022-10-05T09:10:37.741Z,101083.72
2022-10-05T09:13:32.289Z,101086.44
2022-10-05T09:16:16.764Z,101086.75
2022-10-05T09:19:24.337Z,101084.41
2022-10-05T09:22:11.377Z,101091.56
2022-10-05T09:25:08.561Z,101089.38
2022-10-05T09:27:48.407Z,101081.34
2022-10-05T09:30:56.881Z,101076.53
2022-10-05T09:34:02.577Z,101072.63
2022-10-05T09:36:48.043Z,101074.25
2022-10-05T09:39:43.311Z,101071.84
2022-10-05T09:42:35.005Z,101065.44
2022-10-05T09:45:48.805Z,101066.44
2022-10-05T09:48:54.843Z,101067.63
2022-10-05T09:51:47.206Z,101076.31
2022-10-05T09:55:01.256Z,101079.03
2022-10-05T09:58:05.534Z,101080.97
2022-10-05T10:01:08.909Z,101078.03
2022-10-05T10:04:10.827Z,101082.56
2022-10-05T10:07:21.072Z,101076.28
2022-10-05T10:10:31.489Z,101076.75
2022-10-05T10:13:29.916Z,101072.50
2022-10-05T10:16:27.201Z,101080.53
2022-10-05T10:19:57.796Z,101081.69
2022-10-05T10:23:12.412Z,101078.25
2022-10-05T10:26:12.417Z,101077.63
2022-10-05T10:29:42.858Z,101078.97
2022-10-05T10:32:53.540Z,101084.00
2022-10-05T10:35:54.343Z,101076.88
2022-10-05T10:38:30.923Z,101065.69
2022-10-05T10:41:40.545Z,101079.41
2022-10-05T10:44:58.804Z,101063.63
2022-10-05T10:47:38.908Z,101071.41
2022-10-05T10:50:29.147Z,101067.91
2022-10-05T10:53:11.301Z,101069.97
2022-10-05T10:56:21.657Z,101069.09
2022-10-05T10:59:56.906Z,101070.19
2022-10-05T11:03:29.614Z,101071.25
2022-10-05T11:06:13.403Z,101063.50
2022-10-05T11:09:19.581Z,101059.81
2022-10-05T11:12:20.507Z,101061.28
2022-10-05T11:15:23.805Z,101055.72
2022-10-05T11:18:09.409Z,101058.28
2022-10-05T11:21:30.248Z,101045.91
2022-10-05T11:24:54.582Z,101050.53
2022-10-05T11:28:04.032Z,101047.81
2022-10-05T11:31:25.556Z,101036.69
2022-10-05T11:34:19.953Z,101034.38
2022-10-05T11:37:29.132Z,101040.19
2022-10-05T11:41:05.459Z,101034.75
2022-10-05T11:44:12.743Z,101027.81
2022-10-05T11:47:12.050Z,101036.88
2022-10-05T11:49:52.052Z,101030.50
2022-10-05T11:52:47.219Z,101024.53
2022-10-05T11:55:57.701Z,101026.19
2022-10-05T11:58:45.703Z,101013.56
2022-10-05T12:01:20.835Z,101012.59
2022-10-05T12:04:18.494Z,101014.63
2022-10-05T12:07:08.018Z,101014.47
2022-10-05T12:10:29.010Z,101002.19
2022-10-05T12:13:19.230Z,101005.00
2022-10-05T12:16:22.595Z,101000.53
2022-10-05T12:18:59.906Z,101000.50
2022-10-05T12:22:03.751Z,100995.38
2022-10-05T12:24:36.821Z,100995.03
2022-10-05T12:27:25.154Z,100985.53
2022-10-05T12:30:49.493Z,100995.31
2022-10-05T12:33:27.757Z,100998.31
2022-10-05T12:36:15.433Z,100992.59
2022-10-05T12:39:10.788Z,100989.34
2022-10-05T12:42:26.010Z,100981.56
2022-10-05T12:45:35.512Z,100979.44
2022-10-05T12:48:19.868Z,100984.75
2022-10-05T12:51:01.320Z,100978.59
2022-10-05T12:54:22.237Z,100975.28
2022-10-05T12:57:15.098Z,100975.63
2022-10-05T13:00:13.054Z,100974.84
2022-10-05T13:03:00.354Z,100965.94
2022-10-05T13:05:50.814Z,100958.91
2022-10-05T13:09:38.139Z,100961.22
2022-10-05T13:12:35.954Z,100951.88
2022-10-05T13:15:50.063Z,100950.06
2022-10-05T13:19:03.298Z,100960.19
2022-10-05T13:22:03.491Z,100954.16
2022-10-05T13:25:02.804Z,100955.28
2022-10-05T13:27:42.207Z,100955.50
2022-10-05T13:30:20.034Z,100956.06
2022-10-05T13:33:18.158Z,100950.75
2022-10-05T13:36:07.373Z,100962.84
2022-10-05T13:39:06.654Z,100961.41
2022-10-05T13:42:07.675Z,100957.84
2022-10-05T13:45:00.399Z,100959.75
2022-10-05T13:48:11.889Z,100952.34
2022-10-05T13:50:59.037Z,100955.44
2022-10-05T13:53:49.028Z,100955.31
2022-10-05T13:56:36.536Z,100957.31
2022-10-05T13:59:33.348Z,100955.75
2022-10-05T14:02:17.865Z,100949.25
2022-10-05T14:05:15.525Z,100943.88
2022-10-05T14:07:56.628Z,100949.97
2022-10-05T14:10:44.470Z,100950.75
2022-10-05T14:13:20.292Z,100953.50
2022-10-05T14:16:26.126Z,100955.38
2022-10-05T14:19:08.429Z,100948.34
2022-10-05T14:22:01.873Z,100946.31
2022-10-05T14:24:46.279Z,100954.16
2022-10-05T14:27:49.205Z,100947.78
2022-10-05T14:30:20.281Z,100939.00
2022-10-05T14:33:05.337Z,100948.13
2022-10-05T14:35:57.564Z,100936.06
2022-10-05T14:39:03.506Z,100931.16
2022-10-05T14:41:37.499Z,100940.38
2022-10-05T14:44:09.525Z,100938.81
2022-10-05T14:46:39.389Z,100935.47
2022-10-05T14:49:27.894Z,100932.13
2022-10-05T14:51:56.621Z,100931.09
2022-10-05T14:54:43.780Z,100943.50
2022-10-05T14:57:48.074Z,100933.44
2022-10-05T15:00:18.631Z,100928.13
2022-10-05T15:03:16.122Z,100934.56
2022-10-05T15:05:53.907Z,100927.16
2022-10-05T15:09:17.752Z,100921.81
2022-10-05T15:11:58.640Z,100927.38
2022-10-05T15:14:44.796Z,100925.06
2022-10-05T15:17:23.614Z,100934.34
2022-10-05T15:19:55.834Z,100927.66
2022-10-05T15:23:33.430Z,100930.81
2022-10-05T15:26:43.386Z,100927.78
2022-10-05T15:29:52.052Z,100941.72
2022-10-05T15:32:42.010Z,100925.59
2022-10-05T15:35:48.898Z,100940.09
2022-10-05T15:38:30.978Z,100935.72
2022-10-05T15:41:20.489Z,100934.56
2022-10-05T15:44:27.768Z,100935.50
2022-10-05T15:47:18.917Z,100933.97
2022-10-05T15:49:58.353Z,100939.59
2022-10-05T15:53:20.681Z,100935.44
2022-10-05T15:56:20.656Z,100921.72
2022-10-05T15:59:07.033Z,100930.38
2022-10-05T16:01:34.062Z,100937.25
2022-10-05T16:04:30.177Z,100934.50
2022-10-05T16:07:23.616Z,100943.38
2022-10-05T16:10:08.928Z,100944.94
2022-10-05T16:13:23.888Z,100950.75
2022-10-05T16:16:30.613Z,100948.31
2022-10-05T16:19:36.938Z,100950.56
2022-10-05T16:22:39.988Z,100955.41
2022-10-05T16:26:32.575Z,100956.91
2022-10-05T16:29:14.322Z,100957.41
2022-10-05T16:32:07.193Z,100960.59
2022-10-05T16:35:33.325Z,100955.91
2022-10-05T16:38:47.548Z,100963.47
2022-10-05T16:41:35.249Z,100962.97
2022-10-05T16:44:30.518Z,100968.91
2022-10-05T16:47:39.304Z,100976.41
2022-10-05T16:50:42.978Z,100968.19
2022-10-05T16:53:37.285Z,100982.19
2022-10-05T16:56:18.790Z,100985.47
2022-10-05T16:59:36.608Z,100987.00
2022-10-05T17:02:46.442Z,100994.59
2022-10-05T17:05:57.110Z,100995.50
2022-10-05T17:09:11.212Z,100999.69
2022-10-05T17:11:58.254Z,100999.41
2022-10-05T17:15:13.796Z,101000.13
2022-10-05T17:18:05.047Z,101006.72
2022-10-05T17:20:51.540Z,101003.72
2022-10-05T17:23:50.838Z,101011.53
2022-10-05T17:26:45.932Z,101012.44
2022-10-05T17:29:32.004Z,101014.56
2022-10-05T17:32:33.964Z,101008.75
2022-10-05T17:35:01.044Z,101018.34
2022-10-05T17:37:28.128Z,101009.47
2022-10-05T17:39:57.883Z,101005.94
2022-10-05T17:42:40.036Z,101008.59
2022-10-05T17:45:11.939Z,101009.44
2022-10-05T17:48:03.714Z,101012.94
2022-10-05T17:51:01.500Z,101011.16
2022-10-05T17:54:06.704Z,101009.84
2022-10-05T17:56:56.900Z,101019.16
2022-10-05T17:59:44.501Z,101016.16
2022-10-05T18:02:28.905Z,101009.72
2022-10-05T18:05:12.540Z,101020.19
2022-10-05T18:07:49.581Z,101013.72
2022-10-05T18:10:29.048Z,101016.97
2022-10-05T18:12:59.293Z,101020.38
2022-10-05T18:15:26.381Z,101024.81
2022-10-05T18:18:20.190Z,101024.44
2022-10-05T18:21:20.363Z,101026.88
2022-10-05T18:23:59.770Z,101028.22
2022-10-05T18:26:57.214Z,101024.22
2022-10-05T18:30:05.079Z,101024.34
2022-10-05T18:33:23.998Z,101035.78
2022-10-05T18:36:38.087Z,101029.94
2022-10-05T18:39:39.274Z,101046.28
2022-10-05T18:42:49.703Z,101048.69
2022-10-05T18:46:11.089Z,101047.84
2022-10-05T18:49:18.749Z,101046.53
2022-10-05T18:52:06.414Z,101044.44
2022-10-05T18:55:32.598Z,101046.81
2022-10-05T18:59:06.702Z,101045.72
2022-10-05T19:02:59.226Z,101050.88
2022-10-05T19:06:08.297Z,101044.53
2022-10-05T19:13:31.483Z,101053.06
2022-10-05T19:17:06.625Z,101049.47
2022-10-05T19:20:43.414Z,101058.88
2022-10-05T19:24:03.191Z,101062.22
2022-10-05T19:28:11.967Z,101050.59
2022-10-05T19:31:51.028Z,101054.16
2022-10-05T19:36:03.426Z,101063.75
2022-10-05T19:39:01.616Z,101059.72
2022-10-05T19:42:46.628Z,101067.09
2022-10-05T19:46:23.828Z,101068.75
2022-10-05T19:49:40.486Z,101069.19
2022-10-05T19:52:50.898Z,101072.91
2022-10-05T19:58:52.398Z,101079.38
2022-10-05T20:01:49.718Z,101074.75
2022-10-05T20:05:17.190Z,101087.53
2022-10-05T20:08:01.912Z,101078.63
2022-10-05T20:11:39.903Z,101085.47
2022-10-05T20:14:32.918Z,101084.75
2022-10-05T20:19:17.415Z,101091.41
2022-10-05T20:22:59.260Z,101094.31
2022-10-05T20:26:34.671Z,101098.31
2022-10-05T20:29:13.234Z,101104.28
2022-10-05T20:31:50.377Z,101109.41
2022-10-05T20:35:00.106Z,101109.13
2022-10-05T20:37:49.034Z,101112.56
2022-10-05T20:40:40.141Z,101117.97
2022-10-05T20:43:34.586Z,101114.53
2022-10-05T20:46:11.545Z,101114.47
2022-10-05T20:48:44.333Z,101111.53
2022-10-05T20:51:33.860Z,101118.44
2022-10-05T20:54:13.421Z,101112.41
2022-10-05T20:56:43.306Z,101115.19
2022-10-05T20:59:10.994Z,101114.53
2022-10-05T21:01:39.729Z,101114.38
2022-10-05T21:04:07.882Z,101113.41
2022-10-05T21:06:35.229Z,101116.81
2022-10-05T21:09:02.419Z,101114.97
2022-10-05T21:11:29.693Z,101113.03
2022-10-05T21:13:57.038Z,101105.88
2022-10-05T21:16:24.899Z,101108.38
2022-10-05T21:18:53.573Z,101103.69
2022-10-05T21:21:21.830Z,101110.63
2022-10-05T21:23:49.045Z,101101.59
2022-10-05T21:26:16.596Z,101105.94
2022-10-05T21:28:43.909Z,101107.78
2022-10-05T21:31:11.203Z,101105.50
2022-10-05T21:33:38.394Z,101109.53
2022-10-05T21:36:05.798Z,101106.69
2022-10-05T21:38:32.944Z,101103.06
2022-10-05T21:41:00.306Z,101102.28
2022-10-05T21:43:28.030Z,101092.81
2022-10-05T21:45:56.212Z,101087.47
2022-10-05T21:48:25.792Z,101086.72
2022-10-05T21:50:54.251Z,101083.91
2022-10-05T21:53:29.953Z,101082.97
2022-10-05T21:56:02.696Z,101084.44
2022-10-05T21:58:31.238Z,101081.75
2022-10-05T22:00:58.619Z,101088.59
2022-10-05T22:03:26.268Z,101079.56
2022-10-05T22:05:53.424Z,101078.50
2022-10-05T22:08:39.777Z,101076.63
2022-10-05T22:11:17.719Z,101070.97
2022-10-05T22:13:53.708Z,101076.97
2022-10-05T22:16:23.670Z,101076.09
2022-10-05T22:18:51.676Z,101072.38
2022-10-05T22:21:21.015Z,101073.94
2022-10-05T22:23:48.891Z,101067.09
2022-10-05T22:26:20.885Z,101071.53
2022-10-05T22:28:49.641Z,101070.34
2022-10-05T22:31:18.750Z,101074.63
2022-10-05T22:33:46.009Z,101077.00
2022-10-05T22:36:13.260Z,101067.97
2022-10-05T22:38:40.526Z,101064.59
2022-10-05T22:41:12.168Z,101071.59
2022-10-05T22:43:39.573Z,101071.59
2022-10-05T22:46:14.322Z,101065.16
2022-10-05T22:48:41.544Z,101063.22
2022-10-05T22:51:09.215Z,101063.06
2022-10-05T22:53:36.436Z,101060.25
2022-10-05T22:56:13.406Z,101058.78
2022-10-05T22:58:42.962Z,101058.88
2022-10-05T23:01:15.968Z,101056.22
2022-10-05T23:03:44.377Z,101056.88
2022-10-05T23:06:17.705Z,101060.34
2022-10-05T23:08:45.934Z,101056.72
2022-10-05T23:11:25.715Z,101056.31
2022-10-05T23:13:58.600Z,101058.78
2022-10-05T23:16:28.523Z,101062.09
2022-10-05T23:18:56.301Z,101056.50
2022-10-05T23:21:28.460Z,101058.31
2022-10-05T23:23:55.744Z,101059.91
2022-10-05T23:26:25.525Z,101066.72
2022-10-05T23:28:52.817Z,101055.84
2022-10-05T23:31:30.077Z,101052.22
2022-10-05T23:33:57.437Z,101057.25
2022-10-05T23:36:32.131Z,101055.53
2022-10-05T23:39:00.366Z,101051.09
2022-10-05T23:41:27.709Z,101052.97
2022-10-05T23:43:55.403Z,101052.91
2022-10-05T23:46:23.216Z,101050.84
2022-10-05T23:48:53.068Z,101049.03
2022-10-05T23:51:20.362Z,101045.00
2022-10-05T23:53:47.612Z,101046.97
2022-10-05T23:56:14.908Z,101047.13
2022-10-05T23:58:42.174Z,101047.13
